Daytona Beach International Airport
KDAB : now visible

Airfield :











YOU CAN JOIN US ON...

 
LOGIN :

Register | Disclaimer

   EN    FR    IT 

 









Legend :    VFR   Marginal VFR   IFR   Intensive IFR   Very Intensive IFR
Visi :
Ceiling :
>= 8 km
>= 3000ft
5 to 8 km
1000 to 3000 ft
1500m to 5 km
500 to 1000 ft
800 to 1500m
200 to 500 ft
< 800m
< 200 ft
Symbols :   Thunderstorms  Fog  Heavy snow  Heavy precipitations  Wind > 20 kt






- Airport Elevation : 34 ft
- IATA code : DAB


KDAB - Daytona Beach International

CURRENT METAR :
  • 170353Z 15004KT 9SM FEW050 17/17 A3008 RMK AO2 SLP184 T01720167 $

EXPIRED METARs :
  • 170253Z 35009KT 9SM SCT007 BKN090 17/17 A3012 RMK AO2 SLP197 60038 T01720167 51010 $
  • 170201Z 01014KT 10SM SCT007 BKN012 OVC060 18/18 A3012 RMK AO2 T01830178 $
  • 170153Z 35005KT 10SM BKN012 BKN036 OVC096 19/19 A3011 RMK AO2 RAB00E03 SLP195 P0001 T01940189 $
  • 170135Z 34003KT 9SM SCT036 OVC055 19/19 A3010 RMK AO2 RAB00E03 P0001 T01940189 $

TAF KDAB
Valid from the 17 at 01:00 until the 18 at 00:00 UTC


170057Z 1701/1724 VRB05KT P6SM VCSH SCT025 BKN050
TEMPO 1701/1702 BKN025
FM170600 VRB03KT P6SM SCT010 SCT100 BKN200
TEMPO 1710/1714 1SM BR SCT005 BKN010
FM171500 VRB05KT P6SM FEW015 SCT020 BKN035



MET'MAP, your aeronautical weather chart ! - Copyright ORBIFLY December 2007 - Disclaimer

ORBIFLY MET'MAP TEAM :

Programming & Development : Alexandra Zaïnal
Concept & original design : Baudouin d'Aumeries
Assistance for programming : Marc-Olivier Méhu
Technical & hardware support : Manuel Goepfert

Contact : metmap@orbifly.com




SOURCES & CREDITS :

   NOAA       Earth
Advisory